sensor_id;sensor_type;location;lat;lon;timestamp;temperature;humidity
28632;DHT22;15818;45.534;5.292;2022-10-26T00:01:09;16.70;99.90
28632;DHT22;15818;45.534;5.292;2022-10-26T00:03:36;16.70;99.90
28632;DHT22;15818;45.534;5.292;2022-10-26T00:06:14;16.60;99.90
28632;DHT22;15818;45.534;5.292;2022-10-26T00:08:40;16.40;99.90
28632;DHT22;15818;45.534;5.292;2022-10-26T00:11:07;16.40;99.90
28632;DHT22;15818;45.534;5.292;2022-10-26T00:13:34;16.30;99.90
28632;DHT22;15818;45.534;5.292;2022-10-26T00:16:00;16.30;99.90
28632;DHT22;15818;45.534;5.292;2022-10-26T00:18:26;16.30;99.90
28632;DHT22;15818;45.534;5.292;2022-10-26T00:20:52;16.60;99.90
28632;DHT22;15818;45.534;5.292;2022-10-26T00:23:18;16.70;99.90
28632;DHT22;15818;45.534;5.292;2022-10-26T00:25:44;16.60;99.90
28632;DHT22;15818;45.534;5.292;2022-10-26T00:28:09;16.50;99.90
28632;DHT22;15818;45.534;5.292;2022-10-26T00:30:38;16.60;99.90
28632;DHT22;15818;45.534;5.292;2022-10-26T00:33:04;16.50;99.90
28632;DHT22;15818;45.534;5.292;2022-10-26T00:35:30;16.50;99.90
28632;DHT22;15818;45.534;5.292;2022-10-26T00:37:55;16.50;99.90
28632;DHT22;15818;45.534;5.292;2022-10-26T00:40:21;16.40;99.90
28632;DHT22;15818;45.534;5.292;2022-10-26T00:42:47;16.40;99.90
28632;DHT22;15818;45.534;5.292;2022-10-26T00:45:29;16.40;99.90
28632;DHT22;15818;45.534;5.292;2022-10-26T00:48:02;16.40;99.90
28632;DHT22;15818;45.534;5.292;2022-10-26T00:50:41;16.50;99.90
28632;DHT22;15818;45.534;5.292;2022-10-26T00:53:09;16.50;99.90
28632;DHT22;15818;45.534;5.292;2022-10-26T00:55:44;16.50;99.90
28632;DHT22;15818;45.534;5.292;2022-10-26T00:58:11;16.50;99.90
28632;DHT22;15818;45.534;5.292;2022-10-26T01:00:38;16.40;99.90
28632;DHT22;15818;45.534;5.292;2022-10-26T01:03:07;16.40;99.90
28632;DHT22;15818;45.534;5.292;2022-10-26T01:05:35;16.40;99.90
28632;DHT22;15818;45.534;5.292;2022-10-26T01:08:01;16.40;99.90
28632;DHT22;15818;45.534;5.292;2022-10-26T01:10:28;16.40;99.90
28632;DHT22;15818;45.534;5.292;2022-10-26T01:12:55;16.40;99.90
28632;DHT22;15818;45.534;5.292;2022-10-26T01:21:20;16.20;99.90
28632;DHT22;15818;45.534;5.292;2022-10-26T01:26:50;16.30;99.90
28632;DHT22;15818;45.534;5.292;2022-10-26T01:29:42;16.30;99.90
28632;DHT22;15818;45.534;5.292;2022-10-26T01:32:26;16.40;99.90
28632;DHT22;15818;45.534;5.292;2022-10-26T01:35:34;16.40;99.90
28632;DHT22;15818;45.534;5.292;2022-10-26T01:43:29;16.20;99.90
28632;DHT22;15818;45.534;5.292;2022-10-26T01:45:55;16.30;99.90
28632;DHT22;15818;45.534;5.292;2022-10-26T01:48:22;16.30;99.90
28632;DHT22;15818;45.534;5.292;2022-10-26T01:50:52;16.30;99.90
28632;DHT22;15818;45.534;5.292;2022-10-26T01:53:19;16.30;99.90
28632;DHT22;15818;45.534;5.292;2022-10-26T01:55:50;16.30;99.90
28632;DHT22;15818;45.534;5.292;2022-10-26T01:58:36;16.30;99.90
28632;DHT22;15818;45.534;5.292;2022-10-26T02:04:15;16.30;99.90
28632;DHT22;15818;45.534;5.292;2022-10-26T02:09:40;16.30;99.90
28632;DHT22;15818;45.534;5.292;2022-10-26T02:12:18;16.30;99.90
28632;DHT22;15818;45.534;5.292;2022-10-26T02:14:51;16.30;99.90
28632;DHT22;15818;45.534;5.292;2022-10-26T02:19:50;16.20;99.90
28632;DHT22;15818;45.534;5.292;2022-10-26T02:22:22;16.20;99.90
28632;DHT22;15818;45.534;5.292;2022-10-26T02:24:51;16.30;99.90
28632;DHT22;15818;45.534;5.292;2022-10-26T02:27:26;16.30;99.90
28632;DHT22;15818;45.534;5.292;2022-10-26T02:29:54;16.30;99.90
28632;DHT22;15818;45.534;5.292;2022-10-26T02:32:26;16.30;99.90
28632;DHT22;15818;45.534;5.292;2022-10-26T02:34:54;16.30;99.90
28632;DHT22;15818;45.534;5.292;2022-10-26T02:37:23;16.20;99.90
28632;DHT22;15818;45.534;5.292;2022-10-26T02:39:51;16.20;99.90
28632;DHT22;15818;45.534;5.292;2022-10-26T02:42:19;16.30;99.90
28632;DHT22;15818;45.534;5.292;2022-10-26T02:44:49;16.40;99.90
28632;DHT22;15818;45.534;5.292;2022-10-26T02:47:17;16.40;99.90
28632;DHT22;15818;45.534;5.292;2022-10-26T02:49:44;16.50;99.90
28632;DHT22;15818;45.534;5.292;2022-10-26T02:52:34;16.50;99.90
28632;DHT22;15818;45.534;5.292;2022-10-26T02:55:27;16.50;99.90
28632;DHT22;15818;45.534;5.292;2022-10-26T02:57:56;16.50;99.90
28632;DHT22;15818;45.534;5.292;2022-10-26T03:00:23;16.50;99.90
28632;DHT22;15818;45.534;5.292;2022-10-26T03:02:57;16.60;99.90
28632;DHT22;15818;45.534;5.292;2022-10-26T03:05:28;16.60;99.90
28632;DHT22;15818;45.534;5.292;2022-10-26T03:07:55;16.60;99.90
28632;DHT22;15818;45.534;5.292;2022-10-26T03:10:21;16.50;99.90
28632;DHT22;15818;45.534;5.292;2022-10-26T03:12:47;16.60;99.90
28632;DHT22;15818;45.534;5.292;2022-10-26T03:15:13;16.60;99.90
28632;DHT22;15818;45.534;5.292;2022-10-26T03:17:39;16.50;99.90
28632;DHT22;15818;45.534;5.292;2022-10-26T03:20:05;16.60;99.90
28632;DHT22;15818;45.534;5.292;2022-10-26T03:22:31;16.50;99.90
28632;DHT22;15818;45.534;5.292;2022-10-26T03:24:57;16.50;99.90
28632;DHT22;15818;45.534;5.292;2022-10-26T03:27:22;16.50;99.90
28632;DHT22;15818;45.534;5.292;2022-10-26T03:29:48;16.50;99.90
28632;DHT22;15818;45.534;5.292;2022-10-26T03:32:14;16.50;99.90
28632;DHT22;15818;45.534;5.292;2022-10-26T03:34:39;16.50;99.90
28632;DHT22;15818;45.534;5.292;2022-10-26T03:37:05;16.50;99.90
28632;DHT22;15818;45.534;5.292;2022-10-26T03:39:30;16.50;99.90
28632;DHT22;15818;45.534;5.292;2022-10-26T03:41:56;16.50;99.90
28632;DHT22;15818;45.534;5.292;2022-10-26T03:44:22;16.50;99.90
28632;DHT22;15818;45.534;5.292;2022-10-26T03:46:48;16.60;99.90
28632;DHT22;15818;45.534;5.292;2022-10-26T03:49:13;16.60;99.90
28632;DHT22;15818;45.534;5.292;2022-10-26T03:51:39;16.60;99.90
28632;DHT22;15818;45.534;5.292;2022-10-26T03:54:05;16.50;99.90
28632;DHT22;15818;45.534;5.292;2022-10-26T03:56:30;16.50;99.90
28632;DHT22;15818;45.534;5.292;2022-10-26T03:58:56;16.50;99.90
28632;DHT22;15818;45.534;5.292;2022-10-26T04:01:22;16.50;99.90
28632;DHT22;15818;45.534;5.292;2022-10-26T04:03:47;16.50;99.90
28632;DHT22;15818;45.534;5.292;2022-10-26T04:06:13;16.40;99.90
28632;DHT22;15818;45.534;5.292;2022-10-26T04:08:39;16.40;99.90
28632;DHT22;15818;45.534;5.292;2022-10-26T04:11:04;16.40;99.90
28632;DHT22;15818;45.534;5.292;2022-10-26T04:13:30;16.40;99.90
28632;DHT22;15818;45.534;5.292;2022-10-26T04:15:56;16.40;99.90
28632;DHT22;15818;45.534;5.292;2022-10-26T04:18:21;16.50;99.90
28632;DHT22;15818;45.534;5.292;2022-10-26T04:20:47;16.40;99.90
28632;DHT22;15818;45.534;5.292;2022-10-26T04:23:15;16.40;99.90
28632;DHT22;15818;45.534;5.292;2022-10-26T04:25:42;16.40;99.90
28632;DHT22;15818;45.534;5.292;2022-10-26T04:28:08;16.40;99.90
28632;DHT22;15818;45.534;5.292;2022-10-26T04:30:35;16.40;99.90
28632;DHT22;15818;45.534;5.292;2022-10-26T04:33:01;16.30;99.90
28632;DHT22;15818;45.534;5.292;2022-10-26T04:35:26;16.20;99.90
28632;DHT22;15818;45.534;5.292;2022-10-26T04:38:00;16.30;99.90
28632;DHT22;15818;45.534;5.292;2022-10-26T04:40:27;16.20;99.90
28632;DHT22;15818;45.534;5.292;2022-10-26T04:42:53;16.10;99.90
28632;DHT22;15818;45.534;5.292;2022-10-26T04:45:19;16.20;99.90
28632;DHT22;15818;45.534;5.292;2022-10-26T04:47:45;16.20;99.90
28632;DHT22;15818;45.534;5.292;2022-10-26T04:50:11;16.20;99.90
28632;DHT22;15818;45.534;5.292;2022-10-26T04:52:38;16.20;99.90
28632;DHT22;15818;45.534;5.292;2022-10-26T04:55:04;16.20;99.90
28632;DHT22;15818;45.534;5.292;2022-10-26T04:57:34;16.20;99.90
28632;DHT22;15818;45.534;5.292;2022-10-26T05:00:00;16.10;99.90
28632;DHT22;15818;45.534;5.292;2022-10-26T05:02:29;16.00;99.90
28632;DHT22;15818;45.534;5.292;2022-10-26T05:04:55;16.10;99.90
28632;DHT22;15818;45.534;5.292;2022-10-26T05:07:20;16.10;99.90
28632;DHT22;15818;45.534;5.292;2022-10-26T05:09:46;16.10;99.90
28632;DHT22;15818;45.534;5.292;2022-10-26T05:12:12;16.20;99.90
28632;DHT22;15818;45.534;5.292;2022-10-26T05:14:37;16.20;99.90
28632;DHT22;15818;45.534;5.292;2022-10-26T05:17:03;16.20;99.90
28632;DHT22;15818;45.534;5.292;2022-10-26T05:19:29;16.20;99.90
28632;DHT22;15818;45.534;5.292;2022-10-26T05:21:54;16.10;99.90
28632;DHT22;15818;45.534;5.292;2022-10-26T05:24:20;16.00;99.90
28632;DHT22;15818;45.534;5.292;2022-10-26T05:26:46;16.10;99.90
28632;DHT22;15818;45.534;5.292;2022-10-26T05:29:11;16.10;99.90
28632;DHT22;15818;45.534;5.292;2022-10-26T05:31:37;16.00;99.90
28632;DHT22;15818;45.534;5.292;2022-10-26T05:34:03;16.10;99.90
28632;DHT22;15818;45.534;5.292;2022-10-26T05:36:28;16.00;99.90
28632;DHT22;15818;45.534;5.292;2022-10-26T05:38:58;16.00;99.90
28632;DHT22;15818;45.534;5.292;2022-10-26T05:41:24;16.00;99.90
28632;DHT22;15818;45.534;5.292;2022-10-26T05:43:49;16.00;99.90
28632;DHT22;15818;45.534;5.292;2022-10-26T05:46:15;16.00;99.90
28632;DHT22;15818;45.534;5.292;2022-10-26T05:48:40;16.00;99.90
28632;DHT22;15818;45.534;5.292;2022-10-26T05:51:06;15.90;99.90
28632;DHT22;15818;45.534;5.292;2022-10-26T05:53:32;16.00;99.90
28632;DHT22;15818;45.534;5.292;2022-10-26T05:55:58;15.90;99.90
28632;DHT22;15818;45.534;5.292;2022-10-26T05:58:24;15.90;99.90
28632;DHT22;15818;45.534;5.292;2022-10-26T06:01:06;15.80;99.90
28632;DHT22;15818;45.534;5.292;2022-10-26T06:06:16;15.80;99.90
28632;DHT22;15818;45.534;5.292;2022-10-26T06:08:42;15.80;99.90
28632;DHT22;15818;45.534;5.292;2022-10-26T06:11:08;15.80;99.90
28632;DHT22;15818;45.534;5.292;2022-10-26T06:13:34;15.80;99.90
28632;DHT22;15818;45.534;5.292;2022-10-26T06:21:50;15.80;99.90
28632;DHT22;15818;45.534;5.292;2022-10-26T06:30:03;15.80;99.90
28632;DHT22;15818;45.534;5.292;2022-10-26T06:32:31;15.90;99.90
28632;DHT22;15818;45.534;5.292;2022-10-26T06:37:43;15.80;99.90
28632;DHT22;15818;45.534;5.292;2022-10-26T06:40:11;15.90;99.90
28632;DHT22;15818;45.534;5.292;2022-10-26T06:42:38;16.10;99.90
28632;DHT22;15818;45.534;5.292;2022-10-26T06:45:04;16.10;99.90
28632;DHT22;15818;45.534;5.292;2022-10-26T06:50:36;16.20;99.90
28632;DHT22;15818;45.534;5.292;2022-10-26T06:53:15;16.30;99.90
28632;DHT22;15818;45.534;5.292;2022-10-26T06:55:45;16.30;99.90
28632;DHT22;15818;45.534;5.292;2022-10-26T06:58:18;16.30;99.90
28632;DHT22;15818;45.534;5.292;2022-10-26T07:00:50;16.40;99.90
28632;DHT22;15818;45.534;5.292;2022-10-26T07:03:16;16.40;99.90
28632;DHT22;15818;45.534;5.292;2022-10-26T07:05:42;16.50;99.90
28632;DHT22;15818;45.534;5.292;2022-10-26T07:08:08;16.70;99.90
28632;DHT22;15818;45.534;5.292;2022-10-26T07:10:33;16.70;99.90
28632;DHT22;15818;45.534;5.292;2022-10-26T07:13:07;16.70;99.90
28632;DHT22;15818;45.534;5.292;2022-10-26T07:15:35;16.80;99.90
28632;DHT22;15818;45.534;5.292;2022-10-26T07:18:06;16.90;99.90
28632;DHT22;15818;45.534;5.292;2022-10-26T07:20:35;16.90;99.90
28632;DHT22;15818;45.534;5.292;2022-10-26T07:23:02;17.00;99.90
28632;DHT22;15818;45.534;5.292;2022-10-26T07:25:28;17.10;99.90
28632;DHT22;15818;45.534;5.292;2022-10-26T07:27:57;17.10;99.90
28632;DHT22;15818;45.534;5.292;2022-10-26T07:30:24;17.30;99.90
28632;DHT22;15818;45.534;5.292;2022-10-26T07:32:54;17.30;99.90
28632;DHT22;15818;45.534;5.292;2022-10-26T07:35:22;17.40;99.90
28632;DHT22;15818;45.534;5.292;2022-10-26T07:37:48;17.50;99.90
28632;DHT22;15818;45.534;5.292;2022-10-26T07:40:14;17.60;99.90
28632;DHT22;15818;45.534;5.292;2022-10-26T07:42:39;17.60;99.90
28632;DHT22;15818;45.534;5.292;2022-10-26T07:45:05;17.80;99.90
28632;DHT22;15818;45.534;5.292;2022-10-26T07:47:31;17.90;99.90
28632;DHT22;15818;45.534;5.292;2022-10-26T07:49:57;18.20;99.90
28632;DHT22;15818;45.534;5.292;2022-10-26T07:52:22;18.30;99.90
28632;DHT22;15818;45.534;5.292;2022-10-26T07:54:48;18.70;99.90
28632;DHT22;15818;45.534;5.292;2022-10-26T07:57:15;18.70;99.90
28632;DHT22;15818;45.534;5.292;2022-10-26T07:59:41;18.70;99.90
28632;DHT22;15818;45.534;5.292;2022-10-26T08:02:08;18.80;99.90
28632;DHT22;15818;45.534;5.292;2022-10-26T08:04:34;18.90;99.90
28632;DHT22;15818;45.534;5.292;2022-10-26T08:07:00;19.30;99.90
28632;DHT22;15818;45.534;5.292;2022-10-26T08:09:25;19.60;99.90
28632;DHT22;15818;45.534;5.292;2022-10-26T08:11:51;20.00;99.90
28632;DHT22;15818;45.534;5.292;2022-10-26T08:14:17;20.00;99.90
28632;DHT22;15818;45.534;5.292;2022-10-26T08:16:42;20.20;99.90
28632;DHT22;15818;45.534;5.292;2022-10-26T08:19:08;20.60;99.90
28632;DHT22;15818;45.534;5.292;2022-10-26T08:21:34;21.60;99.90
28632;DHT22;15818;45.534;5.292;2022-10-26T08:23:59;22.60;99.90
28632;DHT22;15818;45.534;5.292;2022-10-26T08:26:25;23.30;99.90
28632;DHT22;15818;45.534;5.292;2022-10-26T08:28:50;23.20;99.90
28632;DHT22;15818;45.534;5.292;2022-10-26T08:31:16;23.20;99.90
28632;DHT22;15818;45.534;5.292;2022-10-26T08:33:42;24.10;99.90
28632;DHT22;15818;45.534;5.292;2022-10-26T08:36:07;23.90;99.90
28632;DHT22;15818;45.534;5.292;2022-10-26T08:38:33;22.90;99.90
28632;DHT22;15818;45.534;5.292;2022-10-26T08:41:06;22.80;99.90
28632;DHT22;15818;45.534;5.292;2022-10-26T08:46:16;22.60;99.90
28632;DHT22;15818;45.534;5.292;2022-10-26T08:48:48;21.90;99.90
28632;DHT22;15818;45.534;5.292;2022-10-26T08:51:18;21.80;99.90
28632;DHT22;15818;45.534;5.292;2022-10-26T08:54:01;22.60;99.90
28632;DHT22;15818;45.534;5.292;2022-10-26T08:56:37;22.60;99.90
28632;DHT22;15818;45.534;5.292;2022-10-26T08:59:33;23.70;99.90
28632;DHT22;15818;45.534;5.292;2022-10-26T09:02:00;25.00;99.90
28632;DHT22;15818;45.534;5.292;2022-10-26T09:04:28;24.50;99.90
28632;DHT22;15818;45.534;5.292;2022-10-26T09:18:52;27.50;99.90
28632;DHT22;15818;45.534;5.292;2022-10-26T09:24:28;27.20;99.90
28632;DHT22;15818;45.534;5.292;2022-10-26T09:29:39;27.40;99.90
28632;DHT22;15818;45.534;5.292;2022-10-26T09:32:15;28.50;99.90
28632;DHT22;15818;45.534;5.292;2022-10-26T09:37:31;29.70;99.90
28632;DHT22;15818;45.534;5.292;2022-10-26T09:40:14;29.10;99.90
28632;DHT22;15818;45.534;5.292;2022-10-26T09:45:29;31.40;99.90
28632;DHT22;15818;45.534;5.292;2022-10-26T09:48:08;31.50;99.90
28632;DHT22;15818;45.534;5.292;2022-10-26T09:50:38;30.90;99.90
28632;DHT22;15818;45.534;5.292;2022-10-26T09:53:05;30.70;99.90
28632;DHT22;15818;45.534;5.292;2022-10-26T09:55:31;31.00;99.90
28632;DHT22;15818;45.534;5.292;2022-10-26T09:58:03;31.00;99.90
28632;DHT22;15818;45.534;5.292;2022-10-26T10:00:32;32.10;99.90
28632;DHT22;15818;45.534;5.292;2022-10-26T10:02:59;32.10;99.90
28632;DHT22;15818;45.534;5.292;2022-10-26T10:05:34;32.30;99.90
28632;DHT22;15818;45.534;5.292;2022-10-26T10:08:23;32.70;99.90
28632;DHT22;15818;45.534;5.292;2022-10-26T10:11:02;32.70;99.90
28632;DHT22;15818;45.534;5.292;2022-10-26T10:13:35;31.40;99.90
28632;DHT22;15818;45.534;5.292;2022-10-26T10:16:22;30.30;99.90
28632;DHT22;15818;45.534;5.292;2022-10-26T10:18:56;29.80;99.90
28632;DHT22;15818;45.534;5.292;2022-10-26T10:21:39;30.50;99.90
28632;DHT22;15818;45.534;5.292;2022-10-26T10:24:30;31.00;99.90
28632;DHT22;15818;45.534;5.292;2022-10-26T10:29:44;29.50;99.90
28632;DHT22;15818;45.534;5.292;2022-10-26T10:32:17;29.70;99.90
28632;DHT22;15818;45.534;5.292;2022-10-26T10:34:49;29.60;99.90
28632;DHT22;15818;45.534;5.292;2022-10-26T10:37:29;29.90;99.90
28632;DHT22;15818;45.534;5.292;2022-10-26T10:40:03;30.10;99.90
28632;DHT22;15818;45.534;5.292;2022-10-26T10:42:33;30.40;99.90
28632;DHT22;15818;45.534;5.292;2022-10-26T10:45:00;31.40;99.90
28632;DHT22;15818;45.534;5.292;2022-10-26T10:47:32;31.50;99.90
28632;DHT22;15818;45.534;5.292;2022-10-26T10:50:06;31.00;99.90
28632;DHT22;15818;45.534;5.292;2022-10-26T10:52:33;31.20;99.90
28632;DHT22;15818;45.534;5.292;2022-10-26T10:55:33;30.60;99.90
28632;DHT22;15818;45.534;5.292;2022-10-26T11:01:16;31.80;99.90
28632;DHT22;15818;45.534;5.292;2022-10-26T11:06:47;31.70;99.90
28632;DHT22;15818;45.534;5.292;2022-10-26T11:09:20;31.10;99.90
28632;DHT22;15818;45.534;5.292;2022-10-26T11:11:58;31.10;99.90
28632;DHT22;15818;45.534;5.292;2022-10-26T11:14:31;31.40;99.90
28632;DHT22;15818;45.534;5.292;2022-10-26T11:20:02;32.00;99.90
28632;DHT22;15818;45.534;5.292;2022-10-26T11:22:33;31.90;99.90
28632;DHT22;15818;45.534;5.292;2022-10-26T11:25:27;32.20;99.90
28632;DHT22;15818;45.534;5.292;2022-10-26T11:28:03;31.20;99.90
28632;DHT22;15818;45.534;5.292;2022-10-26T11:30:33;31.50;99.90
28632;DHT22;15818;45.534;5.292;2022-10-26T11:33:35;32.70;99.90
28632;DHT22;15818;45.534;5.292;2022-10-26T11:36:19;32.80;99.90
28632;DHT22;15818;45.534;5.292;2022-10-26T11:43:42;33.40;99.90
28632;DHT22;15818;45.534;5.292;2022-10-26T11:51:30;33.90;99.90
28632;DHT22;15818;45.534;5.292;2022-10-26T11:54:02;35.20;99.90
28632;DHT22;15818;45.534;5.292;2022-10-26T11:56:45;33.90;99.90
28632;DHT22;15818;45.534;5.292;2022-10-26T11:59:26;33.00;99.90
28632;DHT22;15818;45.534;5.292;2022-10-26T12:02:17;32.00;99.90
28632;DHT22;15818;45.534;5.292;2022-10-26T12:04:49;33.40;99.90
28632;DHT22;15818;45.534;5.292;2022-10-26T12:07:30;33.80;99.90
28632;DHT22;15818;45.534;5.292;2022-10-26T12:09:57;34.50;99.90
28632;DHT22;15818;45.534;5.292;2022-10-26T12:12:44;35.10;99.90
28632;DHT22;15818;45.534;5.292;2022-10-26T12:23:10;36.20;99.90
28632;DHT22;15818;45.534;5.292;2022-10-26T12:25:36;35.80;99.90
28632;DHT22;15818;45.534;5.292;2022-10-26T12:28:02;34.30;99.90
28632;DHT22;15818;45.534;5.292;2022-10-26T12:30:32;33.40;99.90
28632;DHT22;15818;45.534;5.292;2022-10-26T12:33:03;33.50;99.90
28632;DHT22;15818;45.534;5.292;2022-10-26T12:35:48;34.70;99.90
28632;DHT22;15818;45.534;5.292;2022-10-26T12:43:35;35.20;99.90
28632;DHT22;15818;45.534;5.292;2022-10-26T13:07:16;35.10;99.90
28632;DHT22;15818;45.534;5.292;2022-10-26T13:12:17;33.70;99.90
28632;DHT22;15818;45.534;5.292;2022-10-26T13:15:00;32.90;99.90
28632;DHT22;15818;45.534;5.292;2022-10-26T13:17:29;31.70;99.90
28632;DHT22;15818;45.534;5.292;2022-10-26T13:20:05;31.50;99.90
28632;DHT22;15818;45.534;5.292;2022-10-26T13:22:32;31.10;99.90
28632;DHT22;15818;45.534;5.292;2022-10-26T13:25:00;30.50;99.90
28632;DHT22;15818;45.534;5.292;2022-10-26T13:32:38;29.80;99.90
28632;DHT22;15818;45.534;5.292;2022-10-26T13:35:10;30.10;99.90
28632;DHT22;15818;45.534;5.292;2022-10-26T13:37:42;29.90;99.90
28632;DHT22;15818;45.534;5.292;2022-10-26T13:40:19;29.40;99.90
28632;DHT22;15818;45.534;5.292;2022-10-26T13:42:48;29.70;99.90
28632;DHT22;15818;45.534;5.292;2022-10-26T13:45:18;28.70;99.90
28632;DHT22;15818;45.534;5.292;2022-10-26T13:48:01;28.50;99.90
28632;DHT22;15818;45.534;5.292;2022-10-26T13:50:40;29.30;99.90
28632;DHT22;15818;45.534;5.292;2022-10-26T13:53:42;29.90;99.90
28632;DHT22;15818;45.534;5.292;2022-10-26T13:58:57;28.40;99.90
28632;DHT22;15818;45.534;5.292;2022-10-26T14:01:25;28.50;99.90
28632;DHT22;15818;45.534;5.292;2022-10-26T14:03:51;28.10;99.90
28632;DHT22;15818;45.534;5.292;2022-10-26T14:06:35;27.60;99.90
28632;DHT22;15818;45.534;5.292;2022-10-26T14:09:05;27.70;99.90
28632;DHT22;15818;45.534;5.292;2022-10-26T14:12:08;27.40;99.90
28632;DHT22;15818;45.534;5.292;2022-10-26T14:14:36;28.00;99.90
28632;DHT22;15818;45.534;5.292;2022-10-26T14:17:03;27.80;99.90
28632;DHT22;15818;45.534;5.292;2022-10-26T14:19:37;27.10;99.90
28632;DHT22;15818;45.534;5.292;2022-10-26T14:22:04;27.00;99.90
28632;DHT22;15818;45.534;5.292;2022-10-26T14:24:33;27.10;99.90
28632;DHT22;15818;45.534;5.292;2022-10-26T14:26:59;26.30;99.90
28632;DHT22;15818;45.534;5.292;2022-10-26T14:29:27;25.90;99.90
28632;DHT22;15818;45.534;5.292;2022-10-26T14:31:55;25.70;99.90
28632;DHT22;15818;45.534;5.292;2022-10-26T14:34:22;25.80;99.90
28632;DHT22;15818;45.534;5.292;2022-10-26T14:39:40;26.00;99.90
28632;DHT22;15818;45.534;5.292;2022-10-26T14:42:29;26.70;99.90
28632;DHT22;15818;45.534;5.292;2022-10-26T14:44:56;26.80;99.90
28632;DHT22;15818;45.534;5.292;2022-10-26T14:47:26;26.90;99.90
28632;DHT22;15818;45.534;5.292;2022-10-26T14:49:52;26.70;99.90
28632;DHT22;15818;45.534;5.292;2022-10-26T14:52:25;26.90;99.90
28632;DHT22;15818;45.534;5.292;2022-10-26T14:55:17;26.40;99.90
28632;DHT22;15818;45.534;5.292;2022-10-26T14:57:46;26.10;99.90
28632;DHT22;15818;45.534;5.292;2022-10-26T15:00:20;25.70;99.90
28632;DHT22;15818;45.534;5.292;2022-10-26T15:02:49;25.70;99.90
28632;DHT22;15818;45.534;5.292;2022-10-26T15:07:46;25.70;99.90
28632;DHT22;15818;45.534;5.292;2022-10-26T15:15:52;25.70;99.90
28632;DHT22;15818;45.534;5.292;2022-10-26T15:18:25;25.70;99.90
28632;DHT22;15818;45.534;5.292;2022-10-26T15:20:52;25.20;99.90
28632;DHT22;15818;45.534;5.292;2022-10-26T15:23:20;25.20;99.90
28632;DHT22;15818;45.534;5.292;2022-10-26T15:26:00;25.10;99.90
28632;DHT22;15818;45.534;5.292;2022-10-26T15:28:37;25.00;99.90
28632;DHT22;15818;45.534;5.292;2022-10-26T15:34:05;24.40;99.90
28632;DHT22;15818;45.534;5.292;2022-10-26T15:36:30;24.40;99.90
28632;DHT22;15818;45.534;5.292;2022-10-26T15:38:57;24.30;99.90
28632;DHT22;15818;45.534;5.292;2022-10-26T15:41:29;24.10;99.90
28632;DHT22;15818;45.534;5.292;2022-10-26T15:44:01;24.00;99.90
28632;DHT22;15818;45.534;5.292;2022-10-26T15:46:32;23.90;99.90
28632;DHT22;15818;45.534;5.292;2022-10-26T15:49:01;23.80;99.90
28632;DHT22;15818;45.534;5.292;2022-10-26T15:51:28;23.70;99.90
28632;DHT22;15818;45.534;5.292;2022-10-26T15:53:56;23.70;99.90
28632;DHT22;15818;45.534;5.292;2022-10-26T15:56:24;23.60;99.90
28632;DHT22;15818;45.534;5.292;2022-10-26T15:58:51;23.40;99.90
28632;DHT22;15818;45.534;5.292;2022-10-26T16:01:25;23.40;99.90
28632;DHT22;15818;45.534;5.292;2022-10-26T16:03:52;23.30;99.90
28632;DHT22;15818;45.534;5.292;2022-10-26T16:06:30;23.20;99.90
28632;DHT22;15818;45.534;5.292;2022-10-26T16:08:59;23.20;99.90
28632;DHT22;15818;45.534;5.292;2022-10-26T16:11:26;23.00;99.90
28632;DHT22;15818;45.534;5.292;2022-10-26T16:13:52;22.80;99.90
28632;DHT22;15818;45.534;5.292;2022-10-26T16:16:19;22.50;99.90
28632;DHT22;15818;45.534;5.292;2022-10-26T16:18:45;22.60;99.90
28632;DHT22;15818;45.534;5.292;2022-10-26T16:21:15;22.50;99.90
28632;DHT22;15818;45.534;5.292;2022-10-26T16:23:41;22.50;99.90
28632;DHT22;15818;45.534;5.292;2022-10-26T16:26:07;22.60;99.90
28632;DHT22;15818;45.534;5.292;2022-10-26T16:28:33;22.40;99.90
28632;DHT22;15818;45.534;5.292;2022-10-26T16:31:00;22.50;99.90
28632;DHT22;15818;45.534;5.292;2022-10-26T16:33:26;22.40;99.90
28632;DHT22;15818;45.534;5.292;2022-10-26T16:35:56;22.30;99.90
28632;DHT22;15818;45.534;5.292;2022-10-26T16:38:23;21.90;99.90
28632;DHT22;15818;45.534;5.292;2022-10-26T16:40:49;21.80;99.90
28632;DHT22;15818;45.534;5.292;2022-10-26T16:43:15;21.70;99.90
28632;DHT22;15818;45.534;5.292;2022-10-26T16:45:41;21.20;99.90
28632;DHT22;15818;45.534;5.292;2022-10-26T16:48:09;21.00;99.90
28632;DHT22;15818;45.534;5.292;2022-10-26T16:50:39;21.20;99.90
28632;DHT22;15818;45.534;5.292;2022-10-26T16:53:05;21.60;99.90
28632;DHT22;15818;45.534;5.292;2022-10-26T16:55:31;21.60;99.90
28632;DHT22;15818;45.534;5.292;2022-10-26T16:57:57;21.70;99.90
28632;DHT22;15818;45.534;5.292;2022-10-26T17:00:22;21.90;99.90
28632;DHT22;15818;45.534;5.292;2022-10-26T17:02:48;21.80;99.90
28632;DHT22;15818;45.534;5.292;2022-10-26T17:05:14;21.50;99.90
28632;DHT22;15818;45.534;5.292;2022-10-26T17:07:40;21.20;99.90
28632;DHT22;15818;45.534;5.292;2022-10-26T17:10:05;21.10;99.90
28632;DHT22;15818;45.534;5.292;2022-10-26T17:12:31;21.00;99.90
28632;DHT22;15818;45.534;5.292;2022-10-26T17:14:57;20.90;99.90
28632;DHT22;15818;45.534;5.292;2022-10-26T17:17:24;20.70;99.90
28632;DHT22;15818;45.534;5.292;2022-10-26T17:19:50;20.90;99.90
28632;DHT22;15818;45.534;5.292;2022-10-26T17:22:16;21.20;99.90
28632;DHT22;15818;45.534;5.292;2022-10-26T17:24:42;21.20;99.90
28632;DHT22;15818;45.534;5.292;2022-10-26T17:27:07;21.20;99.90
28632;DHT22;15818;45.534;5.292;2022-10-26T17:29:33;21.00;99.90
28632;DHT22;15818;45.534;5.292;2022-10-26T17:31:59;20.50;99.90
28632;DHT22;15818;45.534;5.292;2022-10-26T17:34:24;20.60;99.90
28632;DHT22;15818;45.534;5.292;2022-10-26T17:36:50;20.60;99.90
28632;DHT22;15818;45.534;5.292;2022-10-26T17:39:16;20.30;99.90
28632;DHT22;15818;45.534;5.292;2022-10-26T17:41:43;20.60;99.90
28632;DHT22;15818;45.534;5.292;2022-10-26T17:44:09;20.70;99.90
28632;DHT22;15818;45.534;5.292;2022-10-26T17:46:35;20.70;99.90
28632;DHT22;15818;45.534;5.292;2022-10-26T17:49:00;20.60;99.90
28632;DHT22;15818;45.534;5.292;2022-10-26T17:51:27;20.70;99.90
28632;DHT22;15818;45.534;5.292;2022-10-26T17:53:54;20.60;99.90
28632;DHT22;15818;45.534;5.292;2022-10-26T17:56:22;20.50;99.90
28632;DHT22;15818;45.534;5.292;2022-10-26T17:58:58;20.40;99.90
28632;DHT22;15818;45.534;5.292;2022-10-26T18:01:24;20.40;99.90
28632;DHT22;15818;45.534;5.292;2022-10-26T18:03:51;20.40;99.90
28632;DHT22;15818;45.534;5.292;2022-10-26T18:06:17;20.50;99.90
28632;DHT22;15818;45.534;5.292;2022-10-26T18:08:43;20.40;99.90
28632;DHT22;15818;45.534;5.292;2022-10-26T18:11:18;20.50;99.90
28632;DHT22;15818;45.534;5.292;2022-10-26T18:13:44;20.50;99.90
28632;DHT22;15818;45.534;5.292;2022-10-26T18:16:13;20.30;99.90